Almont, Michigan
Current Conditions -  °F | °C
As of 1:33 PM on Saturday 20 Dec 2014 (Local Time) from KD95 Reporting Station
Overcast Overcast  
Wind Chill: 29°   Ceiling: 2100
Heat Index: 29°   Visibility: 10mi
Dew Point: 20°   Wind: 0mph
Humidity: 71%   Direction: NA
Pressure: 30.26"   Gusts: NA
Location:  42.92°N, 83.04°W
Report Text: KD95 201833Z AUTO 00000KT 10SM OVC021 M02/M06 A3026 RMK AO2 T10171064
Loading
Personal Weather Stations






























Interactive Weather Map New forecast layout! Learn more

10-Day Weather Forecast

Advertisements
Track Severe Weather on mobile